METAR Data
IDs: Format: Raw Decoded Include TAF

Data at: 2030 UTC 25 Oct 2021

EHAM 252025Z 20011KT 170V230 9000 FEW008 BKN011 12/11 Q1015 BECMG SCT018